createdAt,value
2022-09-14T00:01:27.537Z,14.90
2022-09-14T00:03:57.274Z,14.90
2022-09-14T00:06:25.825Z,14.90
2022-09-14T00:08:56.304Z,14.90
2022-09-14T00:11:25.944Z,14.90
2022-09-14T00:13:54.256Z,14.90
2022-09-14T00:16:24.465Z,14.80
2022-09-14T00:18:52.929Z,14.70
2022-09-14T00:21:21.594Z,14.70
2022-09-14T00:23:49.690Z,14.70
2022-09-14T00:26:20.905Z,14.70
2022-09-14T00:28:50.425Z,14.70
2022-09-14T00:31:19.007Z,14.70
2022-09-14T00:33:48.516Z,14.70
2022-09-14T00:36:18.022Z,14.70
2022-09-14T00:38:47.812Z,14.70
2022-09-14T00:41:20.829Z,14.60
2022-09-14T00:43:57.009Z,14.60
2022-09-14T00:46:26.177Z,14.50
2022-09-14T00:48:54.428Z,14.50
2022-09-14T00:51:23.350Z,14.50
2022-09-14T00:53:51.625Z,14.50
2022-09-14T00:56:20.849Z,14.50
2022-09-14T00:58:52.011Z,14.50
2022-09-14T01:01:20.076Z,14.40
2022-09-14T01:03:48.062Z,14.40
2022-09-14T01:06:23.196Z,14.40
2022-09-14T01:09:06.659Z,14.40
2022-09-14T01:11:58.793Z,14.40
2022-09-14T01:14:36.359Z,14.30
2022-09-14T01:17:11.657Z,14.30
2022-09-14T01:20:00.528Z,14.20
2022-09-14T01:22:36.790Z,14.20
2022-09-14T01:25:19.520Z,14.20
2022-09-14T01:27:51.462Z,14.10
2022-09-14T01:30:22.633Z,14.10
2022-09-14T01:32:54.564Z,14.10
2022-09-14T01:35:27.323Z,14.00
2022-09-14T01:38:00.673Z,14.00
2022-09-14T01:40:33.194Z,14.00
2022-09-14T01:43:06.926Z,14.00
2022-09-14T01:45:38.276Z,13.90
2022-09-14T01:48:08.280Z,13.90
2022-09-14T01:50:42.306Z,13.90
2022-09-14T01:53:13.884Z,13.90
2022-09-14T01:55:45.357Z,13.80
2022-09-14T01:58:19.498Z,13.80
2022-09-14T02:00:49.112Z,13.80
2022-09-14T02:03:20.271Z,13.80
2022-09-14T02:05:53.993Z,13.80
2022-09-14T02:08:21.821Z,13.90
2022-09-14T02:10:49.573Z,13.90
2022-09-14T02:13:18.691Z,13.90
2022-09-14T02:22:09.493Z,13.90
2022-09-14T02:24:37.869Z,13.90
2022-09-14T02:27:07.817Z,13.80
2022-09-14T02:29:37.739Z,13.80
2022-09-14T02:32:16.751Z,13.80
2022-09-14T02:34:54.603Z,13.80
2022-09-14T02:37:31.208Z,13.80
2022-09-14T02:40:07.148Z,13.80
2022-09-14T02:42:41.164Z,13.80
2022-09-14T02:45:17.735Z,13.80
2022-09-14T02:47:55.277Z,13.80
2022-09-14T02:50:29.142Z,13.70
2022-09-14T02:53:02.946Z,13.70
2022-09-14T02:55:36.771Z,13.70
2022-09-14T02:58:07.085Z,13.70
2022-09-14T03:00:38.468Z,13.70
2022-09-14T03:03:07.298Z,13.70
2022-09-14T03:05:35.288Z,13.70
2022-09-14T03:08:04.493Z,13.60
2022-09-14T03:10:33.063Z,13.70
2022-09-14T03:13:01.599Z,13.70
2022-09-14T03:15:30.175Z,13.70
2022-09-14T03:17:59.442Z,13.70
2022-09-14T03:20:29.198Z,13.70
2022-09-14T03:22:58.950Z,13.70
2022-09-14T03:25:27.932Z,13.70
2022-09-14T03:27:57.468Z,13.60
2022-09-14T03:30:25.666Z,13.60
2022-09-14T03:32:53.755Z,13.50
2022-09-14T03:35:22.964Z,13.50
2022-09-14T03:37:50.858Z,13.60
2022-09-14T03:40:21.878Z,13.50
2022-09-14T03:42:52.342Z,13.50
2022-09-14T03:45:21.599Z,13.50
2022-09-14T03:47:49.571Z,13.50
2022-09-14T03:50:19.943Z,13.50
2022-09-14T03:52:49.453Z,13.50
2022-09-14T03:55:19.179Z,13.40
2022-09-14T03:57:46.984Z,13.40
2022-09-14T04:00:15.223Z,13.40
2022-09-14T04:02:43.808Z,13.40
2022-09-14T04:05:11.717Z,13.40
2022-09-14T04:07:39.421Z,13.30
2022-09-14T04:10:09.913Z,13.30
2022-09-14T04:12:41.394Z,13.30
2022-09-14T04:15:10.179Z,13.30
2022-09-14T04:17:38.143Z,13.30
2022-09-14T04:20:09.933Z,13.30
2022-09-14T04:22:38.212Z,13.30
2022-09-14T04:25:08.474Z,13.40
2022-09-14T04:27:36.498Z,13.50
2022-09-14T04:30:05.718Z,13.50
2022-09-14T04:32:34.721Z,13.60
2022-09-14T04:35:05.105Z,13.70
2022-09-14T04:37:36.278Z,13.70
2022-09-14T04:40:25.340Z,13.80
2022-09-14T04:42:53.415Z,13.90
2022-09-14T04:45:21.651Z,14.00
2022-09-14T04:47:50.583Z,14.20
2022-09-14T04:50:18.610Z,14.30
2022-09-14T04:52:46.377Z,14.30
2022-09-14T04:55:14.317Z,14.40
2022-09-14T04:57:58.647Z,14.50
2022-09-14T05:00:37.362Z,14.60
2022-09-14T05:03:11.932Z,14.70
2022-09-14T05:05:44.261Z,14.80
2022-09-14T05:08:12.879Z,14.90
2022-09-14T05:10:40.892Z,14.90
2022-09-14T05:13:10.149Z,15.00
2022-09-14T05:15:38.170Z,15.10
2022-09-14T05:18:14.720Z,15.10
2022-09-14T05:20:42.730Z,15.10
2022-09-14T05:23:10.752Z,15.20
2022-09-14T05:25:38.802Z,15.20
2022-09-14T05:28:07.051Z,15.20
2022-09-14T05:30:40.371Z,15.20
2022-09-14T05:33:08.407Z,15.20
2022-09-14T05:35:36.373Z,15.30
2022-09-14T05:38:07.132Z,15.40
2022-09-14T05:40:35.356Z,15.50
2022-09-14T05:43:03.244Z,15.60
2022-09-14T05:45:31.422Z,15.60
2022-09-14T05:48:04.756Z,15.60
2022-09-14T05:50:32.621Z,15.60
2022-09-14T05:53:00.709Z,15.60
2022-09-14T05:55:28.639Z,15.60
2022-09-14T05:57:56.451Z,15.60
2022-09-14T06:00:24.379Z,15.60
2022-09-14T06:02:54.203Z,15.60
2022-09-14T06:05:25.361Z,15.70
2022-09-14T06:07:56.077Z,15.80
2022-09-14T06:10:23.802Z,15.80
2022-09-14T06:12:55.397Z,15.90
2022-09-14T06:15:24.641Z,16.00
2022-09-14T06:17:52.495Z,16.10
2022-09-14T06:20:20.324Z,16.20
2022-09-14T06:22:52.142Z,16.20
2022-09-14T06:25:20.042Z,16.30
2022-09-14T06:27:47.775Z,16.40
2022-09-14T06:30:16.377Z,16.50
2022-09-14T06:32:44.307Z,16.60
2022-09-14T06:35:12.637Z,16.60
2022-09-14T06:37:40.446Z,16.60
2022-09-14T06:40:10.641Z,16.60
2022-09-14T06:42:39.328Z,16.70
2022-09-14T06:45:08.875Z,16.80
2022-09-14T06:47:37.334Z,16.80
2022-09-14T06:50:06.219Z,16.80
2022-09-14T06:52:34.141Z,16.80
2022-09-14T06:55:02.078Z,16.80
2022-09-14T06:57:31.257Z,16.80
2022-09-14T06:59:59.150Z,16.80
2022-09-14T07:02:29.090Z,16.80
2022-09-14T07:04:57.015Z,16.80
2022-09-14T07:07:24.963Z,16.70
2022-09-14T07:09:52.975Z,16.70
2022-09-14T07:12:20.864Z,16.70
2022-09-14T07:14:50.089Z,16.60
2022-09-14T07:17:18.135Z,16.60
2022-09-14T07:19:47.284Z,16.60
2022-09-14T07:22:15.275Z,16.60
2022-09-14T07:24:45.728Z,16.60
2022-09-14T07:27:13.747Z,16.70
2022-09-14T07:29:41.767Z,16.80
2022-09-14T07:32:21.078Z,16.90
2022-09-14T07:34:49.419Z,16.90
2022-09-14T07:37:20.629Z,17.00
2022-09-14T07:39:48.835Z,17.00
2022-09-14T07:42:18.818Z,17.10
2022-09-14T07:47:35.051Z,17.20
2022-09-14T07:50:13.142Z,17.30
2022-09-14T07:52:41.232Z,17.30
2022-09-14T07:55:12.529Z,17.30
2022-09-14T07:57:56.162Z,17.40
2022-09-14T08:00:25.690Z,17.40
2022-09-14T08:03:02.677Z,17.50
2022-09-14T08:05:36.988Z,17.60
2022-09-14T08:08:06.486Z,17.70
2022-09-14T08:10:36.656Z,17.70
2022-09-14T08:13:05.200Z,17.90
2022-09-14T08:15:34.835Z,17.90
2022-09-14T08:18:07.550Z,18.10
2022-09-14T08:20:38.832Z,18.20
2022-09-14T08:23:09.084Z,18.30
2022-09-14T08:25:40.925Z,18.40
2022-09-14T08:28:08.841Z,18.50
2022-09-14T08:30:36.919Z,18.70
2022-09-14T08:33:08.666Z,18.90
2022-09-14T08:35:57.326Z,19.10
2022-09-14T08:38:28.643Z,19.20
2022-09-14T08:40:57.463Z,19.30
2022-09-14T08:43:28.291Z,19.20
2022-09-14T08:46:02.938Z,19.30
2022-09-14T08:48:39.131Z,19.40
2022-09-14T08:51:09.558Z,19.50
2022-09-14T08:53:41.394Z,19.60
2022-09-14T08:56:14.662Z,19.80
2022-09-14T08:58:53.777Z,19.90
2022-09-14T09:01:29.602Z,19.90
2022-09-14T09:04:21.207Z,19.90
2022-09-14T09:06:58.620Z,19.80
2022-09-14T09:09:36.590Z,19.80
2022-09-14T09:12:06.701Z,19.70
2022-09-14T09:14:37.078Z,19.70
2022-09-14T09:17:11.369Z,19.70
2022-09-14T09:19:52.806Z,19.60
2022-09-14T09:22:24.472Z,19.50
2022-09-14T09:24:55.080Z,19.40
2022-09-14T09:27:27.883Z,19.40
2022-09-14T09:29:55.753Z,19.40
2022-09-14T09:32:25.865Z,19.50
2022-09-14T09:34:59.479Z,19.60
2022-09-14T09:37:27.531Z,19.70
2022-09-14T09:39:55.508Z,19.80
2022-09-14T09:42:26.231Z,19.80
2022-09-14T09:45:04.204Z,19.80
2022-09-14T09:47:35.748Z,19.70
2022-09-14T09:50:17.302Z,19.70
2022-09-14T09:52:51.643Z,19.80
2022-09-14T09:55:32.754Z,20.00
2022-09-14T09:58:29.112Z,20.00
2022-09-14T10:01:12.240Z,20.10
2022-09-14T10:03:41.646Z,20.10
2022-09-14T10:06:18.276Z,20.20
2022-09-14T10:08:48.260Z,20.20
2022-09-14T10:11:34.478Z,20.40
2022-09-14T10:14:02.579Z,20.60
2022-09-14T10:16:37.901Z,20.80
2022-09-14T10:19:16.198Z,20.70
2022-09-14T10:22:28.701Z,20.60
2022-09-14T10:24:59.715Z,20.40
2022-09-14T10:27:40.873Z,20.20
2022-09-14T10:30:15.078Z,20.00
2022-09-14T10:32:46.928Z,20.00
2022-09-14T10:38:23.426Z,19.90
2022-09-14T10:40:59.257Z,19.80
2022-09-14T10:43:39.969Z,19.60
2022-09-14T10:46:14.543Z,19.50
2022-09-14T10:49:03.509Z,19.50
2022-09-14T10:51:49.654Z,19.50
2022-09-14T10:54:35.837Z,19.40
2022-09-14T10:57:13.054Z,19.40
2022-09-14T10:59:50.164Z,19.40
2022-09-14T11:02:36.890Z,19.50
2022-09-14T11:05:14.016Z,19.70
2022-09-14T11:08:01.897Z,19.80
2022-09-14T11:10:37.082Z,19.90
2022-09-14T11:13:28.204Z,20.00
2022-09-14T11:16:06.259Z,20.10
2022-09-14T11:18:44.768Z,20.10
2022-09-14T11:21:22.041Z,20.20
2022-09-14T11:23:54.445Z,20.30
2022-09-14T11:26:32.680Z,20.30
2022-09-14T11:29:09.343Z,20.40
2022-09-14T11:32:04.198Z,20.50
2022-09-14T11:34:43.599Z,20.60
2022-09-14T11:37:14.842Z,20.70
2022-09-14T11:39:47.536Z,20.60
2022-09-14T11:42:21.791Z,20.50
2022-09-14T11:44:55.325Z,20.40
2022-09-14T11:47:24.843Z,20.40
2022-09-14T11:49:59.725Z,20.40
2022-09-14T11:52:30.444Z,20.50
2022-09-14T11:54:59.780Z,20.60
2022-09-14T11:57:31.359Z,20.60
2022-09-14T12:00:42.612Z,20.60
2022-09-14T12:03:20.715Z,20.50
2022-09-14T12:05:49.962Z,20.50
2022-09-14T12:08:40.331Z,20.40
2022-09-14T12:11:32.326Z,20.40
2022-09-14T12:14:33.030Z,20.40
2022-09-14T12:17:28.563Z,20.40
2022-09-14T12:19:58.211Z,20.40
2022-09-14T12:22:33.269Z,20.50
2022-09-14T12:25:16.555Z,20.50
2022-09-14T12:27:53.674Z,20.40
2022-09-14T12:31:11.376Z,20.40
2022-09-14T12:34:16.795Z,20.50
2022-09-14T12:37:11.925Z,20.60
2022-09-14T12:40:00.426Z,20.70
2022-09-14T12:42:32.296Z,20.70
2022-09-14T12:45:38.762Z,20.80
2022-09-14T12:48:09.473Z,20.80
2022-09-14T12:50:41.252Z,20.60
2022-09-14T12:53:22.776Z,20.40
2022-09-14T12:56:01.721Z,20.20
2022-09-14T12:59:04.601Z,19.90
2022-09-14T13:01:44.957Z,19.70
2022-09-14T13:04:23.083Z,19.50
2022-09-14T13:06:52.328Z,19.40
2022-09-14T13:09:23.079Z,19.30
2022-09-14T13:11:56.035Z,19.30
2022-09-14T13:14:25.987Z,19.50
2022-09-14T13:16:55.127Z,19.50
2022-09-14T13:19:26.984Z,19.70
2022-09-14T13:21:56.452Z,19.90
2022-09-14T13:24:29.519Z,20.10
2022-09-14T13:26:59.523Z,20.20
2022-09-14T13:29:28.226Z,20.40
2022-09-14T13:32:03.068Z,20.50
2022-09-14T13:34:36.183Z,20.50
2022-09-14T13:37:05.338Z,20.60
2022-09-14T13:39:38.396Z,20.60
2022-09-14T13:42:07.601Z,20.60
2022-09-14T13:44:37.477Z,20.50
2022-09-14T13:47:07.007Z,20.50
2022-09-14T13:49:37.380Z,20.50
2022-09-14T13:53:00.345Z,20.40
2022-09-14T13:55:28.695Z,20.30
2022-09-14T13:58:20.929Z,20.20
2022-09-14T14:00:54.605Z,20.20
2022-09-14T14:03:35.439Z,20.20
2022-09-14T14:06:21.436Z,20.20
2022-09-14T14:09:06.236Z,20.20
2022-09-14T14:11:39.523Z,20.30
2022-09-14T14:14:19.598Z,20.40
2022-09-14T14:17:22.186Z,20.50
2022-09-14T14:19:52.270Z,20.50
2022-09-14T14:22:25.779Z,20.40
2022-09-14T14:25:12.990Z,20.40
2022-09-14T14:27:44.700Z,20.50
2022-09-14T14:30:16.947Z,20.60
2022-09-14T14:32:51.458Z,20.60
2022-09-14T14:35:22.419Z,20.60
2022-09-14T14:37:52.192Z,20.50
2022-09-14T14:40:22.643Z,20.30
2022-09-14T14:43:25.316Z,20.10
2022-09-14T14:45:58.971Z,19.90
2022-09-14T14:48:30.067Z,19.70
2022-09-14T14:51:00.226Z,19.70
2022-09-14T14:53:29.948Z,19.50
2022-09-14T14:55:58.589Z,19.50
2022-09-14T14:58:26.639Z,19.50
2022-09-14T15:00:54.781Z,19.60
2022-09-14T15:03:33.352Z,19.50
2022-09-14T15:06:01.287Z,19.60
2022-09-14T15:08:30.669Z,19.60
2022-09-14T15:10:58.982Z,19.60
2022-09-14T15:13:28.704Z,19.70
2022-09-14T15:15:58.682Z,19.70
2022-09-14T15:18:26.687Z,19.80
2022-09-14T15:20:56.345Z,19.80
2022-09-14T15:23:24.203Z,19.80
2022-09-14T15:25:53.759Z,19.90
2022-09-14T15:28:25.591Z,19.80
2022-09-14T15:30:53.711Z,19.80
2022-09-14T15:33:25.050Z,19.80
2022-09-14T15:35:57.372Z,19.70
2022-09-14T15:38:28.459Z,19.70
2022-09-14T15:41:02.744Z,19.60
2022-09-14T15:43:32.085Z,19.60
2022-09-14T15:46:04.780Z,19.60
2022-09-14T15:48:32.803Z,19.60
2022-09-14T15:51:01.871Z,19.60
2022-09-14T15:53:30.014Z,19.60
2022-09-14T15:56:11.587Z,19.60
2022-09-14T15:58:42.778Z,19.60
2022-09-14T16:01:16.851Z,19.60
2022-09-14T16:03:47.460Z,19.60
2022-09-14T16:06:22.351Z,19.60
2022-09-14T16:08:50.647Z,19.60
2022-09-14T16:11:19.963Z,19.50
2022-09-14T16:13:50.267Z,19.50
2022-09-14T16:16:19.246Z,19.40
2022-09-14T16:18:47.571Z,19.40
2022-09-14T16:21:19.792Z,19.30
2022-09-14T16:23:50.139Z,19.20
2022-09-14T16:26:25.476Z,19.10
2022-09-14T16:28:54.857Z,19.00
2022-09-14T16:31:25.582Z,18.90
2022-09-14T16:33:57.592Z,18.80
2022-09-14T16:36:28.677Z,18.80
2022-09-14T16:38:58.624Z,18.70
2022-09-14T16:41:28.830Z,18.60
2022-09-14T16:43:57.311Z,18.50
2022-09-14T16:46:26.872Z,18.60
2022-09-14T16:48:56.647Z,18.50
2022-09-14T16:51:27.735Z,18.40
2022-09-14T16:53:56.028Z,18.40
2022-09-14T16:56:26.326Z,18.30
2022-09-14T16:58:57.139Z,18.30
2022-09-14T17:01:28.585Z,18.30
2022-09-14T17:04:01.280Z,18.20
2022-09-14T17:06:38.346Z,18.10
2022-09-14T17:09:08.569Z,18.00
2022-09-14T17:11:37.561Z,18.00
2022-09-14T17:14:07.592Z,17.90
2022-09-14T17:16:36.011Z,17.80
2022-09-14T17:19:06.201Z,17.80
2022-09-14T17:21:36.119Z,17.70
2022-09-14T17:24:05.476Z,17.60
2022-09-14T17:27:13.737Z,17.50
2022-09-14T17:29:44.091Z,17.50
2022-09-14T17:32:14.929Z,17.50
2022-09-14T17:34:59.320Z,17.40
2022-09-14T17:37:31.703Z,17.40
2022-09-14T17:40:02.539Z,17.30
2022-09-14T17:42:32.778Z,17.30
2022-09-14T17:45:05.375Z,17.20
2022-09-14T17:47:35.893Z,17.20
2022-09-14T17:50:06.383Z,17.10
2022-09-14T17:52:36.155Z,17.20
2022-09-14T17:55:04.571Z,17.10
2022-09-14T17:57:32.655Z,17.10
2022-09-14T18:00:07.366Z,17.00
2022-09-14T18:02:42.759Z,17.00
2022-09-14T18:05:11.098Z,17.00
2022-09-14T18:07:39.391Z,16.90
2022-09-14T18:10:09.525Z,16.90
2022-09-14T18:12:39.314Z,16.90
2022-09-14T18:15:10.448Z,16.90
2022-09-14T18:17:38.829Z,16.80
2022-09-14T18:20:10.799Z,16.80
2022-09-14T18:22:39.558Z,16.80
2022-09-14T18:25:08.979Z,16.90
2022-09-14T18:28:37.571Z,16.90
2022-09-14T18:30:43.645Z,16.90
2022-09-14T18:33:26.877Z,17.00
2022-09-14T18:35:55.401Z,17.00
2022-09-14T18:38:28.199Z,17.10
2022-09-14T18:40:56.903Z,17.10
2022-09-14T18:43:25.058Z,17.10
2022-09-14T18:46:14.802Z,17.10
2022-09-14T18:48:44.856Z,17.10
2022-09-14T18:51:14.439Z,17.20
2022-09-14T18:53:42.793Z,17.10
2022-09-14T18:56:28.053Z,17.00
2022-09-14T18:58:56.373Z,16.90
2022-09-14T19:01:25.775Z,16.80
2022-09-14T19:03:55.842Z,16.70
2022-09-14T19:06:24.309Z,16.60
2022-09-14T19:08:52.296Z,16.50
2022-09-14T19:11:22.287Z,16.40
2022-09-14T19:13:55.419Z,16.20
2022-09-14T19:16:23.133Z,16.20
2022-09-14T19:18:52.512Z,16.10
2022-09-14T19:21:24.218Z,16.10
2022-09-14T19:24:02.831Z,16.00
2022-09-14T19:26:45.089Z,15.90
2022-09-14T19:32:08.516Z,15.80
2022-09-14T19:34:38.234Z,15.70
2022-09-14T19:37:06.024Z,15.60
2022-09-14T19:39:33.657Z,15.60
2022-09-14T19:42:01.394Z,15.50
2022-09-14T19:44:29.239Z,15.40
2022-09-14T19:46:57.116Z,15.30
2022-09-14T19:49:26.514Z,15.30
2022-09-14T19:51:56.462Z,15.30
2022-09-14T19:54:24.440Z,15.20
2022-09-14T19:56:52.144Z,15.10
2022-09-14T19:59:19.904Z,15.10
2022-09-14T20:01:48.350Z,15.00
2022-09-14T20:04:18.244Z,15.00
2022-09-14T20:06:48.211Z,14.90
2022-09-14T20:09:19.130Z,14.90
2022-09-14T20:11:48.675Z,14.80
2022-09-14T20:14:19.372Z,14.70
2022-09-14T20:16:49.223Z,14.70
2022-09-14T20:19:18.388Z,14.60
2022-09-14T20:21:47.602Z,14.60
2022-09-14T20:24:19.887Z,14.50
2022-09-14T20:26:49.314Z,14.50
2022-09-14T20:29:18.674Z,14.50
2022-09-14T20:31:47.172Z,14.40
2022-09-14T20:34:16.245Z,14.40
2022-09-14T20:36:44.267Z,14.30
2022-09-14T20:39:12.256Z,14.30
2022-09-14T20:41:41.680Z,14.30
2022-09-14T20:44:10.432Z,14.20
2022-09-14T20:46:40.492Z,14.20
2022-09-14T20:49:16.133Z,14.20
2022-09-14T20:51:44.281Z,14.20
2022-09-14T20:54:14.137Z,14.20
2022-09-14T20:56:44.012Z,14.10
2022-09-14T20:59:13.937Z,14.10
2022-09-14T21:01:43.772Z,14.10
2022-09-14T21:04:14.152Z,14.10
2022-09-14T21:06:44.377Z,14.10
2022-09-14T21:09:13.872Z,14.10
2022-09-14T21:11:45.624Z,14.10
2022-09-14T21:14:14.223Z,14.10
2022-09-14T21:16:43.655Z,14.10
2022-09-14T21:19:14.161Z,14.10
2022-09-14T21:21:41.994Z,14.10
2022-09-14T21:24:13.264Z,14.10
2022-09-14T21:26:43.953Z,14.00
2022-09-14T21:29:14.644Z,14.00
2022-09-14T21:31:42.813Z,14.00
2022-09-14T21:34:12.256Z,14.00
2022-09-14T21:36:41.745Z,14.00
2022-09-14T21:39:11.837Z,14.00
2022-09-14T21:41:40.621Z,14.00
2022-09-14T21:44:10.082Z,14.00
2022-09-14T21:46:37.843Z,13.90
2022-09-14T21:49:05.769Z,13.90
2022-09-14T21:51:35.797Z,13.90
2022-09-14T21:54:09.137Z,13.90
2022-09-14T21:56:38.380Z,13.90
2022-09-14T21:59:08.182Z,13.90
2022-09-14T22:01:37.502Z,13.90
2022-09-14T22:04:06.456Z,13.90
2022-09-14T22:06:34.629Z,13.80
2022-09-14T22:09:03.061Z,13.90
2022-09-14T22:11:32.990Z,13.80
2022-09-14T22:14:02.347Z,13.80
2022-09-14T22:16:32.904Z,13.80
2022-09-14T22:19:04.902Z,13.80
2022-09-14T22:21:36.068Z,13.80
2022-09-14T22:24:06.517Z,13.70
2022-09-14T22:26:35.267Z,13.70
2022-09-14T22:29:03.370Z,13.80
2022-09-14T22:31:32.636Z,13.70
2022-09-14T22:34:01.760Z,13.80
2022-09-14T22:36:29.783Z,13.70
2022-09-14T22:38:58.551Z,13.70
2022-09-14T22:41:27.584Z,13.70
2022-09-14T22:43:56.132Z,13.70
2022-09-14T22:46:25.398Z,13.70
2022-09-14T22:48:53.842Z,13.70
2022-09-14T22:51:25.143Z,13.70
2022-09-14T22:53:53.750Z,13.70
2022-09-14T22:56:23.586Z,13.60
2022-09-14T22:58:51.516Z,13.70
2022-09-14T23:01:22.961Z,13.80
2022-09-14T23:03:55.373Z,13.80
2022-09-14T23:06:27.072Z,13.90
2022-09-14T23:08:54.763Z,14.00
2022-09-14T23:11:22.534Z,14.10
2022-09-14T23:13:51.056Z,14.20
2022-09-14T23:16:21.128Z,14.40
2022-09-14T23:18:52.043Z,14.50
2022-09-14T23:21:20.462Z,14.70
2022-09-14T23:23:53.150Z,14.80
2022-09-14T23:26:21.325Z,14.90
2022-09-14T23:28:52.587Z,14.90
2022-09-14T23:31:20.486Z,15.00
2022-09-14T23:33:50.571Z,15.10
2022-09-14T23:36:18.338Z,15.20
2022-09-14T23:38:47.961Z,15.20
2022-09-14T23:41:17.598Z,15.30
2022-09-14T23:43:45.759Z,15.30
2022-09-14T23:46:14.124Z,15.40
2022-09-14T23:48:42.199Z,15.40
2022-09-14T23:51:11.357Z,15.50
2022-09-14T23:53:39.382Z,15.50
2022-09-14T23:56:08.145Z,15.50
2022-09-14T23:58:37.260Z,15.60
